CheckWX is a tool to help pilots better visualize weather data.  It is not intended as a substitute for an official pre-flight weather briefing.

13:08:07 UTC

LKPD TAF
Pardubice Airport
Pardubice, Czech Republic
TAF LKPD 181100Z 1812/1912 24008KT CAVOK TEMPO 1812/1816 24014KT TEMPO 1900/1906 27014G24KT 7000 SHRA SCT030TCU BKN040 PROB30 TEMPO 1900/1906 4000 TSRA SCT025CB BECMG 1906/1908 SCT025

Aug-18@
12:00 UTC

Aug-18 @ 12:00 UTC

Aug-19@
06:00 UTC

Aug-19 @ 06:00 UTC

TAF LKPD 181100Z 1812/1912 24008KT CAVOK
Wind
  • 240° at 8 KTS
Conditions
No significant weather
Cloud Levels
  • No significant clouds

Aug-18@
12:00 UTC

Aug-18 @ 12:00 UTC

Aug-18@
16:00 UTC

Aug-18 @ 16:00 UTC

TEMPO 1812/1816 24014KT

Temporary

Temporary Changes expected for less than half the time period

Wind
  • 240° at 14 KTS

Aug-19@
00:00 UTC

Aug-19 @ 00:00 UTC

Aug-19@
06:00 UTC

Aug-19 @ 06:00 UTC

TEMPO 1900/1906 27014G24KT 7000 SHRA SCT030TCU BKN040

Temporary

Temporary Changes expected for less than half the time period

Wind
  • 270° at 14 KTS
  • {Gusting to 24 KTS
Conditions
Rain
Cloud Levels
  • Scattered at 3,000' AGL
  • Broken at 4,000' AGL

Aug-19@
00:00 UTC

Aug-19 @ 00:00 UTC

Aug-19@
06:00 UTC

Aug-19 @ 06:00 UTC

PROB30 TEMPO 1900/1906 4000 TSRA SCT025CB

Temporary - 30% Likelihood

Temporary - 30% Likelihood during this time.

Conditions
Thunderstorm, Rain
Cloud Levels
  • Scattered at 2,500' AGL

Aug-19@
06:00 UTC

Aug-19 @ 06:00 UTC

Aug-19@
12:00 UTC

Aug-19 @ 12:00 UTC

BECMG 1906/1908 SCT025

Becoming

Becoming Conditions expected by Mon, Aug 19, 2019 @ 08:00 UTC

Wind
  • 240° at 8 KTS
Conditions
No significant weather
Cloud Levels
  • Scattered at 2,500' AGL